KFRH/FRH METAR and TAF weather

Enter ICAO airport designator
Station Type Date Time Source
KFRH METAR 2021/01/17 19:55 UTC NOAA

KFRH 171955Z AUTO 24007KT 10SM BKN012 OVC018 00/M01 A2976 RMK AO1


Station Type Date Time Source
KFRH Decoded METAR 2021/01/17 19:55 UTC NOAA

Station name not available
Jan 17, 2021 - 02:55 PM EST / 2021.01.17 1955 UTC
Wind: from the WSW (240 degrees) at 8 MPH (7 KT):0
Visibility: 10 mile(s):0
Sky conditions: overcast
Temperature: 32 F (0 C)
Windchill: 24 F (-4 C):1
Dew Point: 30 F (-1 C)
Relative Humidity: 92%
Pressure (altimeter): 29.76 in. Hg (1007 hPa)
ob: KFRH 171955Z AUTO 24007KT 10SM BKN012 OVC018 00/M01 A2976 RMK AO1
cycle: 20

Station Type Date Time Source
KFRH TAF UTC NOAA

Error!

Example: see airport list